Terminal Aerodrome Forecast
Issued by NWS Cleveland, OH

Home | Current Version | Previous Version | Text Only | Print | Product List | Glossary On
Versions: 1 2 3 4 5 6 7 8 9 10 11 12 13 14 15 16 17 18 19 20 21 22 23 24 25 26 27 28 29
417
FTUS41 KCLE 210058 AAA
TAFERI
TAF AMD
KERI 210058Z 2101/2124 27006KT 6SM BR OVC006
     FM210600 18006KT 4SM BR OVC010
      TEMPO 2110/2114 2SM BR OVC005
     FM211500 17010KT P6SM OVC025=

USA.gov is the U.S. government's official web portal to all federal, state and local government web resources and services.